createdAt,value
2022-11-18T00:00:32.960Z,9.80
2022-11-18T00:02:05.192Z,9.80
2022-11-18T00:03:37.633Z,9.80
2022-11-18T00:05:09.251Z,9.70
2022-11-18T00:06:40.923Z,9.70
2022-11-18T00:08:12.565Z,9.70
2022-11-18T00:09:44.191Z,9.70
2022-11-18T00:11:45.178Z,9.70
2022-11-18T00:13:35.890Z,9.70
2022-11-18T00:15:07.757Z,9.80
2022-11-18T00:16:39.392Z,9.80
2022-11-18T00:18:11.033Z,9.70
2022-11-18T00:19:42.654Z,9.80
2022-11-18T00:21:14.545Z,9.70
2022-11-18T00:22:46.240Z,9.70
2022-11-18T00:24:18.215Z,9.70
2022-11-18T00:25:49.849Z,9.80
2022-11-18T00:27:21.502Z,9.70
2022-11-18T00:28:53.086Z,9.70
2022-11-18T00:30:24.873Z,9.70
2022-11-18T00:31:57.279Z,9.70
2022-11-18T00:33:28.990Z,9.70
2022-11-18T00:35:00.594Z,9.70
2022-11-18T00:36:32.453Z,9.70
2022-11-18T00:38:04.043Z,9.70
2022-11-18T00:39:35.664Z,9.70
2022-11-18T00:41:16.504Z,9.70
2022-11-18T00:42:54.028Z,9.70
2022-11-18T00:44:25.951Z,9.70
2022-11-18T00:45:57.985Z,9.70
2022-11-18T00:47:29.633Z,9.70
2022-11-18T00:49:01.285Z,9.70
2022-11-18T00:50:33.342Z,9.80
2022-11-18T00:52:05.522Z,9.80
2022-11-18T00:53:37.339Z,9.80
2022-11-18T00:55:09.603Z,9.80
2022-11-18T00:56:41.606Z,9.80
2022-11-18T00:58:16.114Z,9.80
2022-11-18T00:59:47.742Z,9.80
2022-11-18T01:01:19.446Z,9.80
2022-11-18T01:02:51.087Z,9.80
2022-11-18T01:04:23.074Z,9.80
2022-11-18T01:05:54.847Z,9.80
2022-11-18T01:07:26.899Z,9.80
2022-11-18T01:08:58.595Z,9.70
2022-11-18T01:10:30.599Z,9.70
2022-11-18T01:12:20.732Z,9.70
2022-11-18T01:13:53.740Z,9.80
2022-11-18T01:15:25.442Z,9.70
2022-11-18T01:16:57.487Z,9.80
2022-11-18T01:18:31.073Z,9.70
2022-11-18T01:20:02.718Z,9.70
2022-11-18T01:21:34.507Z,9.70
2022-11-18T01:23:06.162Z,9.70
2022-11-18T01:24:37.774Z,9.70
2022-11-18T01:26:11.667Z,9.70
2022-11-18T01:27:43.336Z,9.70
2022-11-18T01:29:15.841Z,9.70
2022-11-18T01:30:47.681Z,9.80
2022-11-18T01:32:26.506Z,9.80
2022-11-18T01:33:58.132Z,9.70
2022-11-18T01:35:37.995Z,9.80
2022-11-18T01:37:09.672Z,9.70
2022-11-18T01:38:41.267Z,9.70
2022-11-18T01:40:13.151Z,9.70
2022-11-18T01:41:44.844Z,9.70
2022-11-18T01:43:19.223Z,9.70
2022-11-18T01:44:56.935Z,9.70
2022-11-18T01:46:31.182Z,9.70
2022-11-18T01:48:32.149Z,9.70
2022-11-18T01:50:04.961Z,9.70
2022-11-18T01:51:46.112Z,9.70
2022-11-18T01:53:23.163Z,9.70
2022-11-18T01:54:59.220Z,9.70
2022-11-18T01:56:41.737Z,9.70
2022-11-18T01:58:38.105Z,9.70
2022-11-18T02:00:10.524Z,9.70
2022-11-18T02:01:42.496Z,9.70
2022-11-18T02:03:17.416Z,9.70
2022-11-18T02:04:51.508Z,9.80
2022-11-18T02:06:23.221Z,9.80
2022-11-18T02:07:54.890Z,9.70
2022-11-18T02:09:26.544Z,9.70
2022-11-18T02:10:58.180Z,9.70
2022-11-18T02:12:30.361Z,9.70
2022-11-18T02:14:05.717Z,9.70
2022-11-18T02:15:59.796Z,9.70
2022-11-18T02:17:42.969Z,9.70
2022-11-18T02:19:36.373Z,9.70
2022-11-18T02:21:28.269Z,9.70
2022-11-18T02:23:40.374Z,9.70
2022-11-18T02:25:47.232Z,9.70
2022-11-18T02:27:49.872Z,9.70
2022-11-18T02:29:28.814Z,9.80
2022-11-18T02:31:25.537Z,9.80
2022-11-18T02:33:19.830Z,9.70
2022-11-18T02:35:01.249Z,9.70
2022-11-18T02:36:43.385Z,9.70
2022-11-18T02:38:17.758Z,9.70
2022-11-18T02:40:00.150Z,9.70
2022-11-18T02:41:35.255Z,9.70
2022-11-18T02:43:15.924Z,9.70
2022-11-18T02:44:52.095Z,9.70
2022-11-18T02:46:33.007Z,9.70
2022-11-18T02:48:09.059Z,9.70
2022-11-18T02:49:46.881Z,9.70
2022-11-18T02:51:25.022Z,9.70
2022-11-18T02:52:59.374Z,9.70
2022-11-18T02:54:34.162Z,9.70
2022-11-18T02:56:07.226Z,9.70
2022-11-18T02:57:41.434Z,9.70
2022-11-18T02:59:18.454Z,9.70
2022-11-18T03:00:58.534Z,9.70
2022-11-18T03:02:44.189Z,9.60
2022-11-18T03:04:18.038Z,9.70
2022-11-18T03:06:00.546Z,9.70
2022-11-18T03:07:35.900Z,9.70
2022-11-18T03:09:14.670Z,9.70
2022-11-18T03:10:54.329Z,9.60
2022-11-18T03:12:53.772Z,9.60
2022-11-18T03:15:04.346Z,9.70
2022-11-18T03:16:41.995Z,9.60
2022-11-18T03:18:29.636Z,9.70
2022-11-18T03:20:04.103Z,9.70
2022-11-18T03:21:44.516Z,9.60
2022-11-18T03:23:40.308Z,9.60
2022-11-18T03:25:28.474Z,9.60
2022-11-18T03:27:11.851Z,9.70
2022-11-18T03:28:46.068Z,9.70
2022-11-18T03:30:21.797Z,9.60
2022-11-18T03:32:02.265Z,9.60
2022-11-18T03:33:37.937Z,9.60
2022-11-18T03:35:22.347Z,9.60
2022-11-18T03:37:00.628Z,9.60
2022-11-18T03:38:38.282Z,9.60
2022-11-18T03:40:21.878Z,9.60
2022-11-18T03:42:04.283Z,9.60
2022-11-18T03:43:41.150Z,9.60
2022-11-18T03:45:19.006Z,9.60
2022-11-18T03:46:59.342Z,9.60
2022-11-18T03:48:36.003Z,9.60
2022-11-18T03:50:20.904Z,9.60
2022-11-18T03:51:58.103Z,9.60
2022-11-18T03:53:33.953Z,9.60
2022-11-18T03:55:12.258Z,9.60
2022-11-18T03:56:49.710Z,9.60
2022-11-18T03:58:35.868Z,9.70
2022-11-18T04:00:10.882Z,9.60
2022-11-18T04:01:48.554Z,9.60
2022-11-18T04:03:20.219Z,9.60
2022-11-18T04:04:54.078Z,9.60
2022-11-18T04:06:38.129Z,9.60
2022-11-18T04:08:26.270Z,9.60
2022-11-18T04:10:10.502Z,9.60
2022-11-18T04:12:04.974Z,9.60
2022-11-18T04:13:38.024Z,9.60
2022-11-18T04:15:09.990Z,9.60
2022-11-18T04:16:44.002Z,9.60
2022-11-18T04:18:15.657Z,9.60
2022-11-18T04:19:47.628Z,9.60
2022-11-18T04:21:19.258Z,9.60
2022-11-18T04:22:50.903Z,9.60
2022-11-18T04:24:22.549Z,9.60
2022-11-18T04:25:54.185Z,9.60
2022-11-18T04:27:25.847Z,9.60
2022-11-18T04:28:57.551Z,9.60
2022-11-18T04:30:29.416Z,9.60
2022-11-18T04:32:02.442Z,9.60
2022-11-18T04:33:34.054Z,9.60
2022-11-18T04:35:06.432Z,9.60
2022-11-18T04:36:38.282Z,9.60
2022-11-18T04:38:09.937Z,9.60
2022-11-18T04:39:41.534Z,9.60
2022-11-18T04:41:13.202Z,9.60
2022-11-18T04:42:44.858Z,9.60
2022-11-18T04:44:16.662Z,9.60
2022-11-18T04:45:48.243Z,9.60
2022-11-18T04:47:19.909Z,9.60
2022-11-18T04:48:51.529Z,9.60
2022-11-18T04:50:23.193Z,9.60
2022-11-18T04:51:55.729Z,9.60
2022-11-18T04:53:27.346Z,9.60
2022-11-18T04:54:58.974Z,9.60
2022-11-18T04:56:30.985Z,9.60
2022-11-18T04:58:02.739Z,9.60
2022-11-18T04:59:34.440Z,9.60
2022-11-18T05:01:06.166Z,9.60
2022-11-18T05:02:37.826Z,9.60
2022-11-18T05:04:13.495Z,9.60
2022-11-18T05:05:45.192Z,9.60
2022-11-18T05:07:17.005Z,9.60
2022-11-18T05:08:49.176Z,9.60
2022-11-18T05:10:20.950Z,9.60
2022-11-18T05:12:11.275Z,9.60
2022-11-18T05:13:43.288Z,9.60
2022-11-18T05:15:19.540Z,9.60
2022-11-18T05:16:51.325Z,9.60
2022-11-18T05:18:23.080Z,9.60
2022-11-18T05:19:54.929Z,9.60
2022-11-18T05:21:26.700Z,9.60
2022-11-18T05:22:58.548Z,9.60
2022-11-18T05:24:30.364Z,9.60
2022-11-18T05:26:10.004Z,9.60
2022-11-18T05:27:41.672Z,9.60
2022-11-18T05:29:13.523Z,9.60
2022-11-18T05:30:45.257Z,9.50
2022-11-18T05:32:17.016Z,9.60
2022-11-18T05:33:48.864Z,9.60
2022-11-18T05:35:20.633Z,9.60
2022-11-18T05:36:52.387Z,9.60
2022-11-18T05:38:24.138Z,9.60
2022-11-18T05:39:55.985Z,9.50
2022-11-18T05:41:48.467Z,9.50
2022-11-18T05:43:20.098Z,9.50
2022-11-18T05:44:57.861Z,9.60
2022-11-18T05:46:31.483Z,9.60
2022-11-18T05:48:04.570Z,9.60
2022-11-18T05:49:36.658Z,9.60
2022-11-18T05:51:08.273Z,9.60
2022-11-18T05:52:39.898Z,9.60
2022-11-18T05:54:13.646Z,9.60
2022-11-18T05:56:11.834Z,9.60
2022-11-18T05:57:43.497Z,9.50
2022-11-18T05:59:15.612Z,9.50
2022-11-18T06:00:52.194Z,9.50
2022-11-18T06:02:24.478Z,9.50
2022-11-18T06:03:56.979Z,9.50
2022-11-18T06:05:28.705Z,9.50
2022-11-18T06:07:29.555Z,9.50
2022-11-18T06:09:06.637Z,9.60
2022-11-18T06:10:40.833Z,9.60
2022-11-18T06:12:20.932Z,9.50
2022-11-18T06:14:03.141Z,9.50
2022-11-18T06:15:39.921Z,9.50
2022-11-18T06:17:22.896Z,9.50
2022-11-18T06:18:54.953Z,9.50
2022-11-18T06:20:27.070Z,9.50
2022-11-18T06:21:59.271Z,9.50
2022-11-18T06:23:35.230Z,9.50
2022-11-18T06:25:07.227Z,9.50
2022-11-18T06:26:39.414Z,9.50
2022-11-18T06:28:13.375Z,9.50
2022-11-18T06:29:45.072Z,9.50
2022-11-18T06:31:16.787Z,9.50
2022-11-18T06:32:48.585Z,9.50
2022-11-18T06:34:20.222Z,9.50
2022-11-18T06:35:51.878Z,9.50
2022-11-18T06:37:23.513Z,9.50
2022-11-18T06:38:55.182Z,9.50
2022-11-18T06:40:31.664Z,9.50
2022-11-18T06:42:08.776Z,9.50
2022-11-18T06:43:43.214Z,9.50
2022-11-18T06:45:15.063Z,9.50
2022-11-18T06:46:55.603Z,9.50
2022-11-18T06:48:27.482Z,9.50
2022-11-18T06:49:59.434Z,9.50
2022-11-18T06:51:31.299Z,9.50
2022-11-18T06:53:02.918Z,9.50
2022-11-18T06:54:34.530Z,9.50
2022-11-18T06:56:08.096Z,9.50
2022-11-18T06:57:39.735Z,9.50
2022-11-18T06:59:11.520Z,9.60
2022-11-18T07:00:43.213Z,9.50
2022-11-18T07:02:14.987Z,9.50
2022-11-18T07:03:47.439Z,9.50
2022-11-18T07:05:19.103Z,9.50
2022-11-18T07:06:50.843Z,9.50
2022-11-18T07:08:22.511Z,9.50
2022-11-18T07:09:54.195Z,9.50
2022-11-18T07:11:26.796Z,9.60
2022-11-18T07:12:58.418Z,9.50
2022-11-18T07:14:30.288Z,9.50
2022-11-18T07:16:12.843Z,9.50
2022-11-18T07:17:44.511Z,9.50
2022-11-18T07:19:16.553Z,9.50
2022-11-18T07:20:48.473Z,9.50
2022-11-18T07:22:20.137Z,9.50
2022-11-18T07:23:52.300Z,9.50
2022-11-18T07:25:23.956Z,9.50
2022-11-18T07:26:55.781Z,9.50
2022-11-18T07:28:28.871Z,9.50
2022-11-18T07:30:00.526Z,9.50
2022-11-18T07:31:32.386Z,9.50
2022-11-18T07:33:04.009Z,9.50
2022-11-18T07:34:35.596Z,9.50
2022-11-18T07:36:10.274Z,9.50
2022-11-18T07:37:41.897Z,9.50
2022-11-18T07:39:13.593Z,9.50
2022-11-18T07:40:45.237Z,9.50
2022-11-18T07:42:16.857Z,9.50
2022-11-18T07:43:50.304Z,9.50
2022-11-18T07:45:21.989Z,9.50
2022-11-18T07:46:53.660Z,9.50
2022-11-18T07:48:25.272Z,9.50
2022-11-18T07:49:56.873Z,9.40
2022-11-18T07:51:32.435Z,9.40
2022-11-18T07:53:04.102Z,9.40
2022-11-18T07:54:35.857Z,9.40
2022-11-18T07:56:08.708Z,9.40
2022-11-18T07:57:40.385Z,9.40
2022-11-18T07:59:11.986Z,9.40
2022-11-18T08:00:43.649Z,9.40
2022-11-18T08:02:15.246Z,9.40
2022-11-18T08:03:47.907Z,9.40
2022-11-18T08:05:19.586Z,9.40
2022-11-18T08:06:51.205Z,9.40
2022-11-18T08:08:22.813Z,9.40
2022-11-18T08:09:54.458Z,9.40
2022-11-18T08:11:26.166Z,9.40
2022-11-18T08:12:58.115Z,9.40
2022-11-18T08:14:30.269Z,9.40
2022-11-18T08:16:04.206Z,9.40
2022-11-18T08:17:35.945Z,9.40
2022-11-18T08:19:07.699Z,9.40
2022-11-18T08:20:39.334Z,9.40
2022-11-18T08:22:10.961Z,9.40
2022-11-18T08:23:43.022Z,9.40
2022-11-18T08:25:14.808Z,9.40
2022-11-18T08:26:46.557Z,9.40
2022-11-18T08:28:18.269Z,9.40
2022-11-18T08:29:49.930Z,9.40
2022-11-18T08:31:27.332Z,9.40
2022-11-18T08:32:59.025Z,9.40
2022-11-18T08:34:30.710Z,9.40
2022-11-18T08:36:21.529Z,9.40
2022-11-18T08:37:53.190Z,9.40
2022-11-18T08:39:24.901Z,9.40
2022-11-18T08:40:56.550Z,9.40
2022-11-18T08:42:33.956Z,9.40
2022-11-18T08:44:06.990Z,9.40
2022-11-18T08:45:39.630Z,9.40
2022-11-18T08:47:11.265Z,9.40
2022-11-18T08:48:42.926Z,9.40
2022-11-18T08:50:14.604Z,9.40
2022-11-18T08:51:46.353Z,9.40
2022-11-18T08:53:18.002Z,9.40
2022-11-18T08:54:49.869Z,9.40
2022-11-18T08:56:24.059Z,9.40
2022-11-18T08:57:55.688Z,9.40
2022-11-18T08:59:27.545Z,9.40
2022-11-18T09:01:05.393Z,9.40
2022-11-18T09:02:37.282Z,9.40
2022-11-18T09:04:10.550Z,9.40
2022-11-18T09:05:42.249Z,9.40
2022-11-18T09:07:14.129Z,9.40
2022-11-18T09:08:46.928Z,9.40
2022-11-18T09:10:18.674Z,9.40
2022-11-18T09:11:50.410Z,9.50
2022-11-18T09:15:14.888Z,9.50
2022-11-18T09:16:47.704Z,9.50
2022-11-18T09:18:19.491Z,9.50
2022-11-18T09:19:51.164Z,9.50
2022-11-18T09:21:23.595Z,9.50
2022-11-18T09:22:55.315Z,9.50
2022-11-18T09:24:27.918Z,9.50
2022-11-18T09:26:01.833Z,9.50
2022-11-18T09:27:33.459Z,9.50
2022-11-18T09:29:05.923Z,9.60
2022-11-18T09:30:38.052Z,9.60
2022-11-18T09:32:10.049Z,9.60
2022-11-18T09:33:41.954Z,9.60
2022-11-18T09:35:14.381Z,9.60
2022-11-18T09:36:46.146Z,9.60
2022-11-18T09:38:18.286Z,9.60
2022-11-18T09:39:49.999Z,9.70
2022-11-18T09:41:45.537Z,9.70
2022-11-18T09:43:35.820Z,9.60
2022-11-18T09:45:28.281Z,9.70
2022-11-18T09:47:08.991Z,9.70
2022-11-18T09:48:59.440Z,9.70
2022-11-18T09:50:49.112Z,9.70
2022-11-18T09:52:36.147Z,9.70
2022-11-18T09:54:16.892Z,9.60
2022-11-18T09:55:50.741Z,9.60
2022-11-18T09:57:38.610Z,9.70
2022-11-18T09:59:12.945Z,9.70
2022-11-18T10:00:45.992Z,9.70
2022-11-18T10:02:26.423Z,9.70
2022-11-18T10:03:58.672Z,9.70
2022-11-18T10:05:40.461Z,9.70
2022-11-18T10:07:32.060Z,9.70
2022-11-18T10:09:28.257Z,9.70
2022-11-18T10:11:28.669Z,9.70
2022-11-18T10:13:12.836Z,9.70
2022-11-18T10:15:03.055Z,9.70
2022-11-18T10:16:58.441Z,9.70
2022-11-18T10:18:59.796Z,9.70
2022-11-18T10:21:00.027Z,9.80
2022-11-18T10:22:46.414Z,9.80
2022-11-18T10:24:33.365Z,9.80
2022-11-18T10:26:05.013Z,9.80
2022-11-18T10:27:45.421Z,9.80
2022-11-18T10:29:17.101Z,9.80
2022-11-18T10:30:49.199Z,9.90
2022-11-18T10:32:21.062Z,9.90
2022-11-18T10:34:00.666Z,9.90
2022-11-18T10:35:36.049Z,9.90
2022-11-18T10:37:25.440Z,9.90
2022-11-18T10:39:16.262Z,9.90
2022-11-18T10:40:53.637Z,9.90
2022-11-18T10:42:25.259Z,9.90
2022-11-18T10:43:57.371Z,9.90
2022-11-18T10:45:31.909Z,10.00
2022-11-18T10:47:26.618Z,10.00
2022-11-18T10:49:13.549Z,10.00
2022-11-18T10:50:53.471Z,10.10
2022-11-18T10:52:28.256Z,10.10
2022-11-18T10:54:15.789Z,10.10
2022-11-18T10:56:01.417Z,10.20
2022-11-18T10:57:37.090Z,10.10
2022-11-18T10:59:33.530Z,10.10
2022-11-18T11:01:24.286Z,10.10
2022-11-18T11:02:56.207Z,10.10
2022-11-18T11:04:29.455Z,10.20
2022-11-18T11:06:31.059Z,10.20
2022-11-18T11:08:34.425Z,10.10
2022-11-18T11:10:04.521Z,10.10
2022-11-18T11:11:43.450Z,10.10
2022-11-18T11:13:17.156Z,10.10
2022-11-18T11:14:55.534Z,10.20
2022-11-18T11:16:29.436Z,10.20
2022-11-18T11:18:41.268Z,10.20
2022-11-18T11:20:24.248Z,10.20
2022-11-18T11:21:57.296Z,10.20
2022-11-18T11:23:30.913Z,10.20
2022-11-18T11:25:02.545Z,10.20
2022-11-18T11:28:39.019Z,10.20
2022-11-18T11:30:20.909Z,10.20
2022-11-18T11:32:19.484Z,10.20
2022-11-18T11:34:02.836Z,10.20
2022-11-18T11:35:58.819Z,10.20
2022-11-18T11:37:41.802Z,10.20
2022-11-18T11:39:32.077Z,10.20
2022-11-18T11:41:47.117Z,10.20
2022-11-18T11:43:53.048Z,10.30
2022-11-18T11:45:33.479Z,10.20
2022-11-18T11:47:44.709Z,10.20
2022-11-18T11:49:26.702Z,10.20
2022-11-18T11:51:09.116Z,10.20
2022-11-18T11:52:55.928Z,10.30
2022-11-18T11:54:44.871Z,10.30
2022-11-18T11:56:31.145Z,10.30
2022-11-18T11:58:16.508Z,10.30
2022-11-18T11:59:54.627Z,10.30
2022-11-18T12:01:53.532Z,10.30
2022-11-18T12:03:52.897Z,10.30
2022-11-18T12:05:35.678Z,10.30
2022-11-18T12:07:18.587Z,10.30
2022-11-18T12:09:03.729Z,10.30
2022-11-18T12:10:53.108Z,10.30
2022-11-18T12:12:36.575Z,10.30
2022-11-18T12:14:47.610Z,10.40
2022-11-18T12:16:22.124Z,10.30
2022-11-18T12:18:11.938Z,10.30
2022-11-18T12:19:43.587Z,10.30
2022-11-18T12:21:46.567Z,10.40
2022-11-18T12:23:27.822Z,10.40
2022-11-18T12:25:43.557Z,10.40
2022-11-18T12:27:24.076Z,10.40
2022-11-18T12:29:25.589Z,10.40
2022-11-18T12:31:18.942Z,10.40
2022-11-18T12:32:56.667Z,10.40
2022-11-18T12:34:37.150Z,10.50
2022-11-18T12:36:09.389Z,10.50
2022-11-18T12:38:06.881Z,10.60
2022-11-18T12:39:41.558Z,10.50
2022-11-18T12:41:59.619Z,10.50
2022-11-18T12:43:46.741Z,10.50
2022-11-18T12:45:47.142Z,10.50
2022-11-18T12:47:41.422Z,10.50
2022-11-18T12:49:22.067Z,10.60
2022-11-18T12:50:55.857Z,10.60
2022-11-18T12:52:30.388Z,10.60
2022-11-18T12:54:21.899Z,10.60
2022-11-18T12:55:53.586Z,10.50
2022-11-18T12:57:34.702Z,10.50
2022-11-18T12:59:13.206Z,10.60
2022-11-18T13:00:53.794Z,10.50
2022-11-18T13:02:27.476Z,10.60
2022-11-18T13:04:15.714Z,10.50
2022-11-18T13:05:47.371Z,10.50
2022-11-18T13:07:38.308Z,10.50
2022-11-18T13:09:24.650Z,10.50
2022-11-18T13:11:22.830Z,10.60
2022-11-18T13:12:55.028Z,10.50
2022-11-18T13:14:53.976Z,10.50
2022-11-18T13:16:45.337Z,10.60
2022-11-18T13:18:20.332Z,10.50
2022-11-18T13:19:57.450Z,10.50
2022-11-18T13:21:48.978Z,10.50
2022-11-18T13:23:46.356Z,10.50
2022-11-18T13:25:23.772Z,10.50
2022-11-18T13:26:58.137Z,10.50
2022-11-18T13:28:40.651Z,10.50
2022-11-18T13:30:13.688Z,10.50
2022-11-18T13:32:15.666Z,10.50
2022-11-18T13:33:47.589Z,10.50
2022-11-18T13:35:23.146Z,10.50
2022-11-18T13:36:56.909Z,10.50
2022-11-18T13:38:28.925Z,10.50
2022-11-18T13:40:01.677Z,10.60
2022-11-18T13:41:35.194Z,10.50
2022-11-18T13:43:10.953Z,10.50
2022-11-18T13:44:51.638Z,10.50
2022-11-18T13:46:23.478Z,10.50
2022-11-18T13:48:08.958Z,10.50
2022-11-18T13:49:59.193Z,10.50
2022-11-18T13:51:31.564Z,10.50
2022-11-18T13:53:33.320Z,10.60
2022-11-18T13:55:20.126Z,10.50
2022-11-18T13:56:52.506Z,10.60
2022-11-18T13:58:40.189Z,10.60
2022-11-18T14:00:27.228Z,10.60
2022-11-18T14:02:00.022Z,10.60
2022-11-18T14:03:35.938Z,10.60
2022-11-18T14:05:21.511Z,10.60
2022-11-18T14:06:53.678Z,10.60
2022-11-18T14:08:39.345Z,10.60
2022-11-18T14:10:15.371Z,10.60
2022-11-18T14:12:02.616Z,10.60
2022-11-18T14:13:48.419Z,10.60
2022-11-18T14:15:40.573Z,10.60
2022-11-18T14:17:19.341Z,10.60
2022-11-18T14:18:51.949Z,10.60
2022-11-18T14:20:25.739Z,10.60
2022-11-18T14:22:10.091Z,10.60
2022-11-18T14:23:44.779Z,10.60
2022-11-18T14:25:35.932Z,10.60
2022-11-18T14:27:36.587Z,10.60
2022-11-18T14:29:21.035Z,10.60
2022-11-18T14:31:04.117Z,10.60
2022-11-18T14:32:35.898Z,10.60
2022-11-18T14:34:23.465Z,10.60
2022-11-18T14:36:17.780Z,10.60
2022-11-18T14:37:49.437Z,10.60
2022-11-18T14:39:28.256Z,10.50
2022-11-18T14:41:03.367Z,10.50
2022-11-18T14:42:34.995Z,10.50
2022-11-18T14:44:07.945Z,10.60
2022-11-18T14:45:40.744Z,10.50
2022-11-18T14:47:29.462Z,10.50
2022-11-18T14:49:06.323Z,10.50
2022-11-18T14:50:38.019Z,10.50
2022-11-18T14:52:10.262Z,10.40
2022-11-18T14:53:43.192Z,10.50
2022-11-18T14:55:14.816Z,10.40
2022-11-18T14:56:49.106Z,10.40
2022-11-18T14:58:20.740Z,10.40
2022-11-18T14:59:52.428Z,10.40
2022-11-18T15:01:29.306Z,10.40
2022-11-18T15:03:02.422Z,10.30
2022-11-18T15:04:34.118Z,10.40
2022-11-18T15:06:24.691Z,10.40
2022-11-18T15:07:56.687Z,10.40
2022-11-18T15:09:28.430Z,10.30
2022-11-18T15:11:00.094Z,10.40
2022-11-18T15:12:31.765Z,10.30
2022-11-18T15:14:03.661Z,10.30
2022-11-18T15:15:35.426Z,10.30
2022-11-18T15:17:07.109Z,10.30
2022-11-18T15:18:38.820Z,10.30
2022-11-18T15:20:19.265Z,10.30
2022-11-18T15:21:50.981Z,10.30
2022-11-18T15:23:27.033Z,10.30
2022-11-18T15:25:01.216Z,10.30
2022-11-18T15:26:41.135Z,10.30
2022-11-18T15:28:12.785Z,10.30
2022-11-18T15:29:44.599Z,10.30
2022-11-18T15:31:17.578Z,10.30
2022-11-18T15:32:49.214Z,10.30
2022-11-18T15:34:21.580Z,10.30
2022-11-18T15:35:53.666Z,10.30
2022-11-18T15:37:25.374Z,10.30
2022-11-18T15:38:57.069Z,10.30
2022-11-18T15:40:28.775Z,10.30
2022-11-18T15:42:00.408Z,10.30
2022-11-18T15:43:32.109Z,10.30
2022-11-18T15:45:04.198Z,10.30
2022-11-18T15:46:35.943Z,10.30
2022-11-18T15:48:07.541Z,10.30
2022-11-18T15:49:43.440Z,10.20
2022-11-18T15:51:15.399Z,10.30
2022-11-18T15:52:47.325Z,10.30
2022-11-18T15:54:19.698Z,10.30
2022-11-18T15:55:51.644Z,10.30
2022-11-18T15:57:23.381Z,10.30
2022-11-18T15:59:03.302Z,10.30
2022-11-18T16:00:34.907Z,10.30
2022-11-18T16:02:08.974Z,10.30
2022-11-18T16:03:40.591Z,10.30
2022-11-18T16:05:12.238Z,10.30
2022-11-18T16:06:44.212Z,10.30
2022-11-18T16:08:15.852Z,10.30
2022-11-18T16:10:06.242Z,10.20
2022-11-18T16:11:56.657Z,10.30
2022-11-18T16:13:28.248Z,10.30
2022-11-18T16:15:18.448Z,10.30
2022-11-18T16:16:52.322Z,10.30
2022-11-18T16:18:23.926Z,10.20
2022-11-18T16:19:55.535Z,10.30
2022-11-18T16:21:28.385Z,10.30
2022-11-18T16:23:00.145Z,10.30
2022-11-18T16:24:31.818Z,10.30
2022-11-18T16:26:03.849Z,10.20
2022-11-18T16:27:36.414Z,10.20
2022-11-18T16:29:10.236Z,10.20
2022-11-18T16:31:05.882Z,10.20
2022-11-18T16:32:37.509Z,10.20
2022-11-18T16:34:11.957Z,10.30
2022-11-18T16:35:48.011Z,10.20
2022-11-18T16:37:19.626Z,10.20
2022-11-18T16:38:51.210Z,10.20
2022-11-18T16:40:22.863Z,10.20
2022-11-18T16:42:02.207Z,10.20
2022-11-18T16:43:38.248Z,10.20
2022-11-18T16:45:10.516Z,10.20
2022-11-18T16:46:55.671Z,10.20
2022-11-18T16:48:27.254Z,10.20
2022-11-18T16:49:58.925Z,10.20
2022-11-18T16:51:32.652Z,10.20
2022-11-18T16:53:04.280Z,10.20
2022-11-18T16:54:41.066Z,10.20
2022-11-18T16:56:16.276Z,10.20
2022-11-18T16:57:47.911Z,10.20
2022-11-18T16:59:21.907Z,10.20
2022-11-18T17:01:17.622Z,10.20
2022-11-18T17:02:45.547Z,10.20
2022-11-18T17:04:18.416Z,10.20
2022-11-18T17:05:50.099Z,10.20
2022-11-18T17:07:21.953Z,10.20
2022-11-18T17:08:53.793Z,10.20
2022-11-18T17:10:25.400Z,10.20
2022-11-18T17:12:00.827Z,10.20
2022-11-18T17:13:32.472Z,10.20
2022-11-18T17:15:04.432Z,10.20
2022-11-18T17:16:36.141Z,10.20
2022-11-18T17:18:07.756Z,10.20
2022-11-18T17:19:39.406Z,10.20
2022-11-18T17:21:20.883Z,10.10
2022-11-18T17:22:53.124Z,10.10
2022-11-18T17:24:24.870Z,10.10
2022-11-18T17:25:56.861Z,10.10
2022-11-18T17:27:28.494Z,10.10
2022-11-18T17:29:00.225Z,10.10
2022-11-18T17:30:31.966Z,10.10
2022-11-18T17:32:04.020Z,10.10
2022-11-18T17:33:36.211Z,10.10
2022-11-18T17:35:08.770Z,10.10
2022-11-18T17:36:41.468Z,10.10
2022-11-18T17:38:13.184Z,10.10
2022-11-18T17:39:44.797Z,10.10
2022-11-18T17:41:37.556Z,10.10
2022-11-18T17:43:09.196Z,10.10
2022-11-18T17:44:40.967Z,10.10
2022-11-18T17:46:12.621Z,10.00
2022-11-18T17:47:44.269Z,10.00
2022-11-18T17:49:23.650Z,10.00
2022-11-18T17:51:02.714Z,10.00
2022-11-18T17:52:34.365Z,10.10
2022-11-18T17:54:06.670Z,10.10
2022-11-18T17:55:38.460Z,10.00
2022-11-18T17:57:10.245Z,10.00
2022-11-18T17:58:41.923Z,10.00
2022-11-18T18:00:14.617Z,10.10
2022-11-18T18:01:46.529Z,10.00
2022-11-18T18:03:18.223Z,10.00
2022-11-18T18:04:49.825Z,10.00
2022-11-18T18:06:21.598Z,10.00
2022-11-18T18:07:54.956Z,10.00
2022-11-18T18:09:30.918Z,10.00
2022-11-18T18:11:05.009Z,10.00
2022-11-18T18:12:55.314Z,10.00
2022-11-18T18:14:26.961Z,10.00
2022-11-18T18:16:00.866Z,10.00
2022-11-18T18:17:32.525Z,10.00
2022-11-18T18:19:07.748Z,10.00
2022-11-18T18:20:39.424Z,10.00
2022-11-18T18:22:12.787Z,9.90
2022-11-18T18:23:45.323Z,10.00
2022-11-18T18:25:20.124Z,10.00
2022-11-18T18:26:51.757Z,10.00
2022-11-18T18:28:23.480Z,10.00
2022-11-18T18:29:55.719Z,10.00
2022-11-18T18:31:28.130Z,10.00
2022-11-18T18:32:59.739Z,10.00
2022-11-18T18:34:31.342Z,10.00
2022-11-18T18:36:05.827Z,10.00
2022-11-18T18:37:37.688Z,10.00
2022-11-18T18:39:09.678Z,10.00
2022-11-18T18:40:41.271Z,10.00
2022-11-18T18:42:13.004Z,10.00
2022-11-18T18:43:45.877Z,10.00
2022-11-18T18:45:36.195Z,10.00
2022-11-18T18:47:07.895Z,10.00
2022-11-18T18:48:39.530Z,10.00
2022-11-18T18:50:11.216Z,10.00
2022-11-18T18:51:45.184Z,10.00
2022-11-18T18:53:16.862Z,9.90
2022-11-18T18:54:48.541Z,9.90
2022-11-18T18:56:20.308Z,10.00
2022-11-18T18:57:51.906Z,9.90
2022-11-18T18:59:23.566Z,10.00
2022-11-18T19:01:04.035Z,9.90
2022-11-18T19:02:35.746Z,9.90
2022-11-18T19:04:11.132Z,9.90
2022-11-18T19:06:12.686Z,9.90
2022-11-18T19:07:34.792Z,9.90
2022-11-18T19:09:09.074Z,9.90
2022-11-18T19:10:40.742Z,9.90
2022-11-18T19:12:31.259Z,9.90
2022-11-18T19:14:05.934Z,9.90
2022-11-18T19:15:38.314Z,9.90
2022-11-18T19:17:12.052Z,9.90
2022-11-18T19:18:44.426Z,9.90
2022-11-18T19:20:34.335Z,9.90
2022-11-18T19:22:06.838Z,9.90
2022-11-18T19:23:38.440Z,9.90
2022-11-18T19:25:10.363Z,9.90
2022-11-18T19:26:42.038Z,9.90
2022-11-18T19:28:13.693Z,9.90
2022-11-18T19:29:45.450Z,9.90
2022-11-18T19:31:19.958Z,9.90
2022-11-18T19:32:52.243Z,9.90
2022-11-18T19:34:23.851Z,9.90
2022-11-18T19:35:55.515Z,9.90
2022-11-18T19:37:27.236Z,9.90
2022-11-18T19:39:00.390Z,9.90
2022-11-18T19:40:32.032Z,9.90
2022-11-18T19:42:03.716Z,9.90
2022-11-18T19:43:35.935Z,9.90
2022-11-18T19:45:09.043Z,9.90
2022-11-18T19:46:41.079Z,9.90
2022-11-18T19:48:12.702Z,9.90
2022-11-18T19:49:44.408Z,9.90
2022-11-18T19:51:16.187Z,9.90
2022-11-18T19:52:48.149Z,9.90
2022-11-18T19:54:19.933Z,9.90
2022-11-18T19:55:55.710Z,9.90
2022-11-18T19:57:27.383Z,9.90
2022-11-18T19:58:59.349Z,9.90
2022-11-18T20:00:30.986Z,9.90
2022-11-18T20:02:02.662Z,9.90
2022-11-18T20:03:34.353Z,9.90
2022-11-18T20:05:24.948Z,9.90
2022-11-18T20:06:56.872Z,9.90
2022-11-18T20:08:32.292Z,9.90
2022-11-18T20:10:06.467Z,9.90
2022-11-18T20:11:38.349Z,9.90
2022-11-18T20:13:10.128Z,9.90
2022-11-18T20:14:41.720Z,9.90
2022-11-18T20:16:19.668Z,9.90
2022-11-18T20:17:51.275Z,9.90
2022-11-18T20:19:23.531Z,9.90
2022-11-18T20:20:55.230Z,9.90
2022-11-18T20:22:27.165Z,9.90
2022-11-18T20:24:01.344Z,9.90
2022-11-18T20:25:34.836Z,9.90
2022-11-18T20:27:06.625Z,9.90
2022-11-18T20:28:40.135Z,9.90
2022-11-18T20:30:12.490Z,9.90
2022-11-18T20:31:44.103Z,9.90
2022-11-18T20:33:17.348Z,9.90
2022-11-18T20:34:48.964Z,9.90
2022-11-18T20:36:23.456Z,9.90
2022-11-18T20:37:55.169Z,9.90
2022-11-18T20:39:28.500Z,9.90
2022-11-18T20:41:05.324Z,9.90
2022-11-18T20:42:55.604Z,9.90
2022-11-18T20:44:27.212Z,9.80
2022-11-18T20:46:00.312Z,9.80
2022-11-18T20:47:31.965Z,9.80
2022-11-18T20:49:03.569Z,9.90
2022-11-18T20:50:37.534Z,9.90
2022-11-18T20:52:09.180Z,9.80
2022-11-18T20:53:42.392Z,9.80
2022-11-18T20:55:14.055Z,9.80
2022-11-18T20:56:45.665Z,9.90
2022-11-18T20:58:18.475Z,9.80
2022-11-18T20:59:50.100Z,9.80
2022-11-18T21:01:24.725Z,9.80
2022-11-18T21:02:56.633Z,9.80
2022-11-18T21:04:28.334Z,9.80
2022-11-18T21:06:09.559Z,9.80
2022-11-18T21:07:44.204Z,9.80
2022-11-18T21:09:16.868Z,9.80
2022-11-18T21:10:49.046Z,9.80
2022-11-18T21:12:20.694Z,9.80
2022-11-18T21:14:10.838Z,9.80
2022-11-18T21:15:42.442Z,9.80